createdAt,value
2023-03-27T00:02:11.886Z,5.27
2023-03-27T00:07:13.538Z,5.25
2023-03-27T00:12:15.418Z,5.27
2023-03-27T00:17:17.429Z,5.24
2023-03-27T00:22:19.077Z,5.20
2023-03-27T00:27:20.979Z,5.12
2023-03-27T00:32:22.473Z,5.15
2023-03-27T00:37:24.011Z,5.16
2023-03-27T00:42:25.495Z,5.13
2023-03-27T00:47:33.972Z,5.08
2023-03-27T00:52:37.239Z,5.01
2023-03-27T00:57:39.152Z,4.94
2023-03-27T01:02:42.795Z,4.89
2023-03-27T01:08:00.512Z,4.87
2023-03-27T01:13:44.332Z,4.77
2023-03-27T01:19:05.129Z,4.62
2023-03-27T01:25:03.681Z,4.62
2023-03-27T01:30:26.160Z,4.66
2023-03-27T01:35:30.517Z,4.55
2023-03-27T01:40:56.228Z,4.41
2023-03-27T01:46:08.706Z,4.24
2023-03-27T01:51:30.427Z,4.10
2023-03-27T01:56:38.181Z,4.10
2023-03-27T02:01:46.630Z,4.16
2023-03-27T02:06:55.392Z,4.14
2023-03-27T02:12:20.227Z,4.05
2023-03-27T02:17:26.416Z,3.93
2023-03-27T02:22:37.434Z,3.81
2023-03-27T02:27:47.779Z,3.79
2023-03-27T02:33:04.210Z,3.83
2023-03-27T02:38:09.248Z,3.83
2023-03-27T02:43:43.209Z,3.76
2023-03-27T02:48:54.872Z,3.68
2023-03-27T02:54:02.808Z,3.54
2023-03-27T02:59:10.201Z,3.55
2023-03-27T03:04:41.940Z,3.61
2023-03-27T03:09:44.611Z,3.62
2023-03-27T03:14:46.551Z,3.60
2023-03-27T03:19:49.466Z,3.49
2023-03-27T03:24:51.021Z,3.34
2023-03-27T03:29:53.191Z,3.34
2023-03-27T03:34:56.908Z,3.43
2023-03-27T03:39:58.414Z,3.42
2023-03-27T03:44:59.959Z,3.37
2023-03-27T03:50:01.641Z,3.30
2023-03-27T03:55:04.662Z,3.30
2023-03-27T04:00:12.296Z,3.36
2023-03-27T04:05:13.787Z,3.38
2023-03-27T04:10:16.261Z,3.30
2023-03-27T04:15:18.266Z,3.19
2023-03-27T04:20:20.242Z,3.09
2023-03-27T04:25:24.565Z,2.98
2023-03-27T04:30:27.733Z,2.97
2023-03-27T04:35:29.878Z,3.11
2023-03-27T04:40:31.377Z,3.24
2023-03-27T04:45:33.692Z,3.32
2023-03-27T04:50:36.012Z,3.29
2023-03-27T04:55:40.575Z,3.22
2023-03-27T05:00:42.457Z,3.18
2023-03-27T05:05:43.921Z,3.22
2023-03-27T05:10:46.768Z,3.37
2023-03-27T05:15:48.375Z,3.48
2023-03-27T05:20:50.229Z,3.52
2023-03-27T05:25:59.897Z,3.46
2023-03-27T05:31:02.524Z,3.48
2023-03-27T05:36:06.037Z,3.64
2023-03-27T05:41:07.889Z,3.81
2023-03-27T05:46:09.466Z,3.90
2023-03-27T05:51:11.254Z,3.97
2023-03-27T05:56:13.323Z,4.01
2023-03-27T06:01:14.954Z,4.06
2023-03-27T06:06:16.767Z,4.11
2023-03-27T06:11:18.273Z,4.23
2023-03-27T06:16:23.269Z,4.17
2023-03-27T06:21:25.365Z,4.16
2023-03-27T06:26:28.368Z,4.40
2023-03-27T06:31:30.165Z,4.70
2023-03-27T06:36:33.240Z,4.98
2023-03-27T06:41:34.771Z,5.13
2023-03-27T06:46:45.084Z,5.17
2023-03-27T06:51:47.422Z,5.38
2023-03-27T06:56:48.975Z,5.72
2023-03-27T07:01:53.836Z,5.82
2023-03-27T07:06:55.955Z,5.92
2023-03-27T07:11:57.440Z,6.01
2023-03-27T07:16:59.249Z,6.24
2023-03-27T07:22:00.975Z,6.39
2023-03-27T07:27:02.486Z,6.45
2023-03-27T07:32:08.613Z,6.51
2023-03-27T07:37:11.462Z,6.24
2023-03-27T07:42:13.009Z,6.11
2023-03-27T07:47:14.773Z,6.03
2023-03-27T07:52:16.747Z,6.27
2023-03-27T07:57:18.417Z,6.21
2023-03-27T08:02:20.303Z,6.18
2023-03-27T08:07:23.154Z,6.38
2023-03-27T08:12:25.390Z,6.59
2023-03-27T08:17:27.970Z,6.69
2023-03-27T08:22:29.643Z,6.68
2023-03-27T08:27:32.178Z,6.76
2023-03-27T08:32:33.816Z,6.98
2023-03-27T08:37:35.774Z,7.00
2023-03-27T08:42:42.273Z,6.78
2023-03-27T08:47:50.718Z,6.84
2023-03-27T08:52:52.481Z,6.95
2023-03-27T08:57:54.970Z,7.10
2023-03-27T09:03:10.782Z,7.07
2023-03-27T09:08:27.852Z,7.31
2023-03-27T09:13:38.262Z,7.54
2023-03-27T09:18:52.014Z,7.57
2023-03-27T09:23:59.295Z,7.66
2023-03-27T09:29:03.842Z,7.58
2023-03-27T09:34:08.136Z,7.48
2023-03-27T09:39:17.222Z,7.28
2023-03-27T09:44:25.428Z,7.21
2023-03-27T09:49:27.848Z,7.03
2023-03-27T09:54:29.728Z,7.28
2023-03-27T09:59:34.973Z,7.48
2023-03-27T10:04:36.746Z,7.48
2023-03-27T10:09:40.624Z,7.22
2023-03-27T10:14:50.543Z,7.26
2023-03-27T10:20:24.336Z,7.36
2023-03-27T10:25:28.849Z,7.43
2023-03-27T10:30:38.738Z,7.09
2023-03-27T10:35:44.153Z,6.96
2023-03-27T10:40:50.729Z,6.86
2023-03-27T10:45:56.302Z,7.02
2023-03-27T10:51:04.052Z,6.96
2023-03-27T10:56:11.814Z,6.84
2023-03-27T11:01:35.390Z,6.78
2023-03-27T11:06:42.090Z,6.78
2023-03-27T11:11:57.920Z,6.80
2023-03-27T11:17:05.268Z,6.81
2023-03-27T11:22:32.226Z,6.63
2023-03-27T11:27:43.212Z,6.84
2023-03-27T11:32:54.291Z,6.98
2023-03-27T11:38:17.382Z,6.94
2023-03-27T11:43:20.509Z,6.80
2023-03-27T11:48:56.866Z,6.72
2023-03-27T11:54:01.728Z,6.54
2023-03-27T11:59:18.258Z,6.84
2023-03-27T12:04:29.023Z,6.94
2023-03-27T12:09:40.603Z,6.87
2023-03-27T12:14:48.288Z,6.89
2023-03-27T12:19:59.157Z,6.66
2023-03-27T12:25:38.496Z,6.43
2023-03-27T12:30:57.769Z,6.47
2023-03-27T12:36:05.782Z,6.38
2023-03-27T12:41:26.101Z,6.19
2023-03-27T12:46:33.413Z,6.06
2023-03-27T12:52:02.856Z,5.94
2023-03-27T12:57:21.246Z,6.25
2023-03-27T13:02:35.830Z,6.50
2023-03-27T13:08:04.729Z,6.50
2023-03-27T13:13:19.535Z,6.44
2023-03-27T13:18:52.279Z,6.55
2023-03-27T13:24:02.806Z,6.74
2023-03-27T13:29:15.957Z,6.73
2023-03-27T13:34:32.729Z,6.68
2023-03-27T13:40:19.867Z,6.75
2023-03-27T13:45:47.158Z,6.84
2023-03-27T13:51:01.908Z,6.79
2023-03-27T13:56:12.169Z,6.69
2023-03-27T14:01:17.162Z,6.57
2023-03-27T14:06:54.652Z,6.49
2023-03-27T14:12:19.730Z,6.40
2023-03-27T14:17:40.613Z,6.27
2023-03-27T14:22:54.609Z,6.14
2023-03-27T14:27:56.436Z,5.96
2023-03-27T14:33:06.768Z,5.90
2023-03-27T14:38:24.891Z,5.89
2023-03-27T14:43:28.999Z,5.94
2023-03-27T14:48:31.066Z,5.92
2023-03-27T14:53:36.719Z,5.91
2023-03-27T14:58:46.601Z,5.76
2023-03-27T15:03:51.734Z,5.59
2023-03-27T15:08:56.286Z,5.43
2023-03-27T15:13:57.774Z,5.35
2023-03-27T15:19:04.950Z,5.16
2023-03-27T15:24:13.520Z,4.86
2023-03-27T15:29:29.072Z,4.61
2023-03-27T15:34:36.430Z,4.42
2023-03-27T15:40:52.660Z,4.40
2023-03-27T15:45:59.013Z,4.40
2023-03-27T15:51:21.083Z,4.40
2023-03-27T15:56:42.887Z,4.37
2023-03-27T16:02:06.961Z,4.23
2023-03-27T16:07:14.052Z,4.03
2023-03-27T16:12:18.411Z,3.91
2023-03-27T16:17:32.578Z,3.68
2023-03-27T16:22:37.417Z,3.52
2023-03-27T16:27:50.271Z,3.28
2023-03-27T16:32:51.764Z,3.17
2023-03-27T16:37:54.702Z,3.04
2023-03-27T16:42:56.367Z,2.99
2023-03-27T16:47:58.040Z,2.99
2023-03-27T16:52:59.660Z,2.92
2023-03-27T16:58:03.326Z,2.87
2023-03-27T17:03:05.122Z,2.89
2023-03-27T17:08:07.501Z,2.84
2023-03-27T17:13:09.392Z,2.83
2023-03-27T17:18:11.182Z,2.77
2023-03-27T17:23:12.921Z,2.71
2023-03-27T17:28:14.849Z,2.67
2023-03-27T17:33:17.472Z,2.64
2023-03-27T17:38:20.888Z,2.62
2023-03-27T17:43:22.394Z,2.56
2023-03-27T17:48:23.988Z,2.50
2023-03-27T17:53:27.479Z,2.49
2023-03-27T17:58:29.150Z,2.45
2023-03-27T18:03:30.952Z,2.34
2023-03-27T18:08:32.950Z,2.24
2023-03-27T18:13:34.719Z,2.16
2023-03-27T18:18:39.828Z,2.12
2023-03-27T18:23:46.008Z,2.05
2023-03-27T18:28:48.554Z,2.01
2023-03-27T18:33:50.381Z,1.97
2023-03-27T18:38:52.234Z,2.01
2023-03-27T18:43:54.140Z,2.01
2023-03-27T18:48:55.856Z,2.00
2023-03-27T18:53:58.293Z,2.00
2023-03-27T18:58:59.894Z,1.98
2023-03-27T19:04:03.945Z,1.95
2023-03-27T19:09:05.594Z,1.83
2023-03-27T19:14:08.004Z,1.71
2023-03-27T19:19:09.793Z,1.59
2023-03-27T19:24:11.353Z,1.50
2023-03-27T19:29:12.849Z,1.41
2023-03-27T19:34:14.372Z,1.37
2023-03-27T19:39:16.065Z,1.33
2023-03-27T19:44:19.877Z,1.27
2023-03-27T19:49:21.405Z,1.16
2023-03-27T19:54:22.918Z,1.10
2023-03-27T19:59:30.482Z,1.03
2023-03-27T20:04:32.484Z,0.98
2023-03-27T20:09:34.603Z,0.92
2023-03-27T20:14:36.541Z,0.86
2023-03-27T20:19:38.123Z,0.81
2023-03-27T20:24:40.328Z,0.72
2023-03-27T20:29:41.905Z,0.57
2023-03-27T20:34:46.420Z,0.50
2023-03-27T20:39:47.946Z,0.45
2023-03-27T20:44:55.175Z,0.37
2023-03-27T20:49:59.100Z,0.29
2023-03-27T20:55:00.985Z,0.20
2023-03-27T21:00:07.158Z,0.11
2023-03-27T21:05:08.895Z,0.04
2023-03-27T21:10:11.213Z,-0.02
2023-03-27T21:15:13.879Z,-0.11
2023-03-27T21:20:15.912Z,-0.18
2023-03-27T21:25:17.656Z,-0.23
2023-03-27T21:30:19.188Z,-0.29
2023-03-27T21:35:21.079Z,-0.39
2023-03-27T21:40:22.698Z,-0.45
2023-03-27T21:45:24.184Z,-0.53
2023-03-27T21:50:26.009Z,-0.60
2023-03-27T21:55:27.716Z,-0.69
2023-03-27T22:00:29.261Z,-0.71
2023-03-27T22:05:30.791Z,-0.76
2023-03-27T22:10:34.383Z,-0.81
2023-03-27T22:15:36.326Z,-0.85
2023-03-27T22:20:37.933Z,-0.89
2023-03-27T22:25:39.450Z,-0.92
2023-03-27T22:30:41.775Z,-0.97
2023-03-27T22:35:49.689Z,-1.04
2023-03-27T22:40:51.363Z,-1.06
2023-03-27T22:45:52.856Z,-1.12
2023-03-27T22:50:56.509Z,-1.16
2023-03-27T22:55:59.691Z,-1.21
2023-03-27T23:01:02.890Z,-1.25
2023-03-27T23:06:04.693Z,-1.29
2023-03-27T23:11:06.759Z,-1.29
2023-03-27T23:16:09.757Z,-1.29
2023-03-27T23:21:13.998Z,-1.29
2023-03-27T23:26:16.187Z,-1.29
2023-03-27T23:31:20.087Z,-1.30
2023-03-27T23:36:23.875Z,-1.35
2023-03-27T23:41:25.461Z,-1.42
2023-03-27T23:46:27.228Z,-1.45
2023-03-27T23:51:28.858Z,-1.48
2023-03-27T23:56:30.457Z,-1.51
